Branchland, West Virginia
Current Conditions -  °F | °C
As of 2:51 PM on Wednesday 17 Dec 2014 (Local Time) from KHTS Reporting Station
Overcast Overcast  
Wind Chill: 30°   Ceiling: 2100
Heat Index: 36°   Visibility: 10mi
Dew Point: 27°   Wind: 7mph
Humidity: 70%   Direction: 250°WSW
Pressure: 30.17"   Gusts: NA
Location:  38.22°N, 82.2°W
Report Text: KHTS 171951Z 25006KT 10SM OVC021 02/M03 A3017 RMK AO2 SLP219 T00221028
Loading
Personal Weather Stations






























Interactive Weather Map New forecast layout! Learn more

10-Day Weather Forecast

Advertisements
Track Severe Weather on mobile